Hovedside
METAR-TAF:

METAR-TAF

Lufthavner :

Eastern Oregon Regional Airport at Pendleton

Pendleton, Oregon, USA

breddegrad: 45-41-54N, lengdegrad: 118-50-03W, høyde over havet: 455 m

Gjeldene værobservasjon

Denne rapporten ble laget for 27 minutter siden, klokken 14:53 UTC
Vind 4 kt fra Sør-sørøst
Temperatur -1°C
Luftfuktighet 93%
Trykk 1017 hPa
Sikt: 11.3 km
Spredte skyer i en høyde av 12000 ft

METAR: KPDT 051453Z 16004KT 7SM SCT120 M01/M02 A3002 RMK AO2 SLP172 T10111022 51008

Tid: 07:20 (15:20 UTC)

Varsel

Denne rapporten ble laget for 39 minutter siden, klokken 14:41 UTC
Varsel gyldig fra 05. klokken 15 UTC til 06. klokken 12 UTC
Vind 3 kt fra skiftende retning
Sikt: 10 km
Få skyer i en høyde av 7000 ft
Brutte skyer i en høyde av 10000 ft
Fra 06. klokken 0000 UTC
Vind 3 kt fra Sør-sørøst
Sikt: 10 km
Brutte skyer i en høyde av 20000 ft

TAF: KPDT 051441Z 0515/0612 VRB03KT P6SM FEW070 BKN100 FM060000 15003KT P6SM BKN200

Værobservasjoner og værvarsel for over 4000 flyplasser (METAR- og TAF-rapporter).

Tilgjengelige stasjoner er representert av de røde og gule prikkene på kartet.

Hold musepekeren over prikken for å se navnet på stasjonen.

Klikk så for å se værobservasjoner og -varsler.

For å forandre kartet kan du klikke på den grønne knappen med svart kryss for å zoome inn, på den grønne knappen med strek for å zoome ut, eller på de grønne pilene for å se tilstøtende kart.


METAR-TAF: